sensor_id;sensor_type;location;lat;lon;timestamp;P1;durP1;ratioP1;P2;durP2;ratioP2
63882;SDS011;50047;50.596;30.466;2022-09-09T00:03:57;3.50;;;1.90;;
63882;SDS011;50047;50.596;30.466;2022-09-09T00:06:42;3.60;;;1.60;;
63882;SDS011;50047;50.596;30.466;2022-09-09T00:09:12;2.80;;;1.60;;
63882;SDS011;50047;50.596;30.466;2022-09-09T00:11:46;2.80;;;1.60;;
63882;SDS011;50047;50.596;30.466;2022-09-09T00:20:51;2.40;;;1.60;;
63882;SDS011;50047;50.596;30.466;2022-09-09T00:23:10;2.80;;;1.70;;
63882;SDS011;50047;50.596;30.466;2022-09-09T00:31:23;2.80;;;1.50;;
63882;SDS011;50047;50.596;30.466;2022-09-09T00:33:55;3.50;;;1.80;;
63882;SDS011;50047;50.596;30.466;2022-09-09T00:36:29;3.80;;;1.90;;
63882;SDS011;50047;50.596;30.466;2022-09-09T00:39:00;1.80;;;1.30;;
63882;SDS011;50047;50.596;30.466;2022-09-09T00:44:03;3.50;;;1.60;;
63882;SDS011;50047;50.596;30.466;2022-09-09T00:52:36;4.40;;;2.10;;
63882;SDS011;50047;50.596;30.466;2022-09-09T00:55:27;3.10;;;1.70;;
63882;SDS011;50047;50.596;30.466;2022-09-09T00:57:59;2.60;;;1.60;;
63882;SDS011;50047;50.596;30.466;2022-09-09T01:05:45;5.10;;;2.10;;
63882;SDS011;50047;50.596;30.466;2022-09-09T01:11:20;5.20;;;2.00;;
63882;SDS011;50047;50.596;30.466;2022-09-09T01:13:52;3.00;;;1.60;;
63882;SDS011;50047;50.596;30.466;2022-09-09T01:16:29;5.80;;;2.00;;
63882;SDS011;50047;50.596;30.466;2022-09-09T01:18:58;3.20;;;1.80;;
63882;SDS011;50047;50.596;30.466;2022-09-09T01:21:43;2.80;;;1.50;;
63882;SDS011;50047;50.596;30.466;2022-09-09T01:24:25;2.90;;;1.80;;
63882;SDS011;50047;50.596;30.466;2022-09-09T01:27:22;5.80;;;1.80;;
63882;SDS011;50047;50.596;30.466;2022-09-09T01:29:51;3.70;;;1.80;;
63882;SDS011;50047;50.596;30.466;2022-09-09T01:32:40;5.60;;;2.40;;
63882;SDS011;50047;50.596;30.466;2022-09-09T01:35:12;2.80;;;1.30;;
63882;SDS011;50047;50.596;30.466;2022-09-09T01:37:48;5.30;;;1.60;;
63882;SDS011;50047;50.596;30.466;2022-09-09T01:40:16;1.90;;;1.40;;
63882;SDS011;50047;50.596;30.466;2022-09-09T01:42:44;4.00;;;1.90;;
63882;SDS011;50047;50.596;30.466;2022-09-09T01:45:32;4.00;;;1.90;;
63882;SDS011;50047;50.596;30.466;2022-09-09T01:48:00;2.80;;;1.70;;
63882;SDS011;50047;50.596;30.466;2022-09-09T01:50:42;3.90;;;2.20;;
63882;SDS011;50047;50.596;30.466;2022-09-09T01:53:09;4.30;;;1.80;;
63882;SDS011;50047;50.596;30.466;2022-09-09T01:55:40;4.50;;;2.10;;
63882;SDS011;50047;50.596;30.466;2022-09-09T01:58:32;2.90;;;1.90;;
63882;SDS011;50047;50.596;30.466;2022-09-09T02:01:03;3.40;;;2.10;;
63882;SDS011;50047;50.596;30.466;2022-09-09T02:03:47;3.30;;;1.90;;
63882;SDS011;50047;50.596;30.466;2022-09-09T02:06:30;3.50;;;2.00;;
63882;SDS011;50047;50.596;30.466;2022-09-09T02:09:17;3.50;;;2.00;;
63882;SDS011;50047;50.596;30.466;2022-09-09T02:11:49;3.90;;;2.00;;
63882;SDS011;50047;50.596;30.466;2022-09-09T02:14:39;5.10;;;2.10;;
63882;SDS011;50047;50.596;30.466;2022-09-09T02:17:13;4.30;;;2.00;;
63882;SDS011;50047;50.596;30.466;2022-09-09T02:20:14;1.60;;;1.10;;
63882;SDS011;50047;50.596;30.466;2022-09-09T02:22:46;2.60;;;1.30;;
63882;SDS011;50047;50.596;30.466;2022-09-09T02:25:18;2.40;;;1.50;;
63882;SDS011;50047;50.596;30.466;2022-09-09T02:27:50;3.20;;;2.00;;
63882;SDS011;50047;50.596;30.466;2022-09-09T02:30:18;4.20;;;2.20;;
63882;SDS011;50047;50.596;30.466;2022-09-09T02:32:53;8.20;;;2.00;;
63882;SDS011;50047;50.596;30.466;2022-09-09T02:35:30;4.60;;;2.10;;
63882;SDS011;50047;50.596;30.466;2022-09-09T02:38:05;3.30;;;1.70;;
63882;SDS011;50047;50.596;30.466;2022-09-09T02:40:37;3.20;;;2.00;;
63882;SDS011;50047;50.596;30.466;2022-09-09T02:43:05;5.20;;;2.10;;
63882;SDS011;50047;50.596;30.466;2022-09-09T02:45:40;4.00;;;2.20;;
63882;SDS011;50047;50.596;30.466;2022-09-09T02:59:49;3.20;;;1.80;;
63882;SDS011;50047;50.596;30.466;2022-09-09T03:02:19;3.20;;;1.70;;
63882;SDS011;50047;50.596;30.466;2022-09-09T03:04:50;3.50;;;2.10;;
63882;SDS011;50047;50.596;30.466;2022-09-09T03:07:19;4.70;;;2.00;;
63882;SDS011;50047;50.596;30.466;2022-09-09T03:09:47;4.80;;;2.00;;
63882;SDS011;50047;50.596;30.466;2022-09-09T03:12:16;3.50;;;1.90;;
63882;SDS011;50047;50.596;30.466;2022-09-09T03:14:43;4.60;;;2.00;;
63882;SDS011;50047;50.596;30.466;2022-09-09T03:17:12;3.40;;;1.90;;
63882;SDS011;50047;50.596;30.466;2022-09-09T03:19:45;4.00;;;1.90;;
63882;SDS011;50047;50.596;30.466;2022-09-09T03:22:12;3.00;;;1.70;;
63882;SDS011;50047;50.596;30.466;2022-09-09T03:24:41;3.70;;;2.00;;
63882;SDS011;50047;50.596;30.466;2022-09-09T03:27:08;3.10;;;1.80;;
63882;SDS011;50047;50.596;30.466;2022-09-09T03:29:36;2.80;;;1.20;;
63882;SDS011;50047;50.596;30.466;2022-09-09T03:32:05;2.50;;;1.50;;
63882;SDS011;50047;50.596;30.466;2022-09-09T03:34:33;2.60;;;1.80;;
63882;SDS011;50047;50.596;30.466;2022-09-09T03:37:00;2.80;;;1.50;;
63882;SDS011;50047;50.596;30.466;2022-09-09T03:39:28;5.80;;;1.90;;
63882;SDS011;50047;50.596;30.466;2022-09-09T03:41:58;4.30;;;1.70;;
63882;SDS011;50047;50.596;30.466;2022-09-09T03:44:25;4.20;;;1.80;;
63882;SDS011;50047;50.596;30.466;2022-09-09T03:46:53;3.80;;;1.70;;
63882;SDS011;50047;50.596;30.466;2022-09-09T03:49:20;3.90;;;2.00;;
63882;SDS011;50047;50.596;30.466;2022-09-09T03:51:48;3.50;;;1.70;;
63882;SDS011;50047;50.596;30.466;2022-09-09T03:54:16;5.20;;;2.20;;
63882;SDS011;50047;50.596;30.466;2022-09-09T03:56:43;3.70;;;2.10;;
63882;SDS011;50047;50.596;30.466;2022-09-09T03:59:11;4.20;;;1.70;;
63882;SDS011;50047;50.596;30.466;2022-09-09T04:01:38;2.90;;;1.90;;
63882;SDS011;50047;50.596;30.466;2022-09-09T04:04:07;3.00;;;1.90;;
63882;SDS011;50047;50.596;30.466;2022-09-09T04:06:35;3.70;;;2.00;;
63882;SDS011;50047;50.596;30.466;2022-09-09T04:09:02;4.70;;;2.40;;
63882;SDS011;50047;50.596;30.466;2022-09-09T04:11:30;3.30;;;2.00;;
63882;SDS011;50047;50.596;30.466;2022-09-09T04:13:58;4.50;;;2.20;;
63882;SDS011;50047;50.596;30.466;2022-09-09T04:16:25;2.90;;;2.00;;
63882;SDS011;50047;50.596;30.466;2022-09-09T04:18:52;3.30;;;1.80;;
63882;SDS011;50047;50.596;30.466;2022-09-09T04:21:20;5.30;;;2.30;;
63882;SDS011;50047;50.596;30.466;2022-09-09T04:23:48;4.20;;;2.40;;
63882;SDS011;50047;50.596;30.466;2022-09-09T04:26:15;6.00;;;2.30;;
63882;SDS011;50047;50.596;30.466;2022-09-09T04:28:43;6.00;;;2.50;;
63882;SDS011;50047;50.596;30.466;2022-09-09T04:33:47;3.10;;;2.10;;
63882;SDS011;50047;50.596;30.466;2022-09-09T04:36:16;4.20;;;2.20;;
63882;SDS011;50047;50.596;30.466;2022-09-09T04:38:46;5.40;;;2.60;;
63882;SDS011;50047;50.596;30.466;2022-09-09T04:41:15;5.00;;;2.60;;
63882;SDS011;50047;50.596;30.466;2022-09-09T04:43:43;4.00;;;2.30;;
63882;SDS011;50047;50.596;30.466;2022-09-09T04:46:12;3.70;;;1.90;;
63882;SDS011;50047;50.596;30.466;2022-09-09T04:48:39;4.80;;;2.20;;
63882;SDS011;50047;50.596;30.466;2022-09-09T04:51:08;4.20;;;2.20;;
63882;SDS011;50047;50.596;30.466;2022-09-09T04:53:39;6.70;;;2.30;;
63882;SDS011;50047;50.596;30.466;2022-09-09T04:56:07;4.00;;;2.50;;
63882;SDS011;50047;50.596;30.466;2022-09-09T04:58:40;3.10;;;2.20;;
63882;SDS011;50047;50.596;30.466;2022-09-09T05:01:11;4.20;;;2.40;;
63882;SDS011;50047;50.596;30.466;2022-09-09T05:03:47;3.60;;;2.20;;
63882;SDS011;50047;50.596;30.466;2022-09-09T05:06:20;5.80;;;2.40;;
63882;SDS011;50047;50.596;30.466;2022-09-09T05:08:52;10.70;;;3.00;;
63882;SDS011;50047;50.596;30.466;2022-09-09T05:11:24;6.60;;;2.70;;
63882;SDS011;50047;50.596;30.466;2022-09-09T05:13:59;6.50;;;2.40;;
63882;SDS011;50047;50.596;30.466;2022-09-09T05:16:27;4.60;;;2.40;;
63882;SDS011;50047;50.596;30.466;2022-09-09T05:18:55;5.10;;;2.60;;
63882;SDS011;50047;50.596;30.466;2022-09-09T05:21:23;3.10;;;2.20;;
63882;SDS011;50047;50.596;30.466;2022-09-09T05:23:53;5.80;;;2.30;;
63882;SDS011;50047;50.596;30.466;2022-09-09T05:26:21;4.10;;;2.30;;
63882;SDS011;50047;50.596;30.466;2022-09-09T05:28:50;4.50;;;2.30;;
63882;SDS011;50047;50.596;30.466;2022-09-09T05:31:18;3.80;;;2.40;;
63882;SDS011;50047;50.596;30.466;2022-09-09T05:33:48;3.10;;;2.30;;
63882;SDS011;50047;50.596;30.466;2022-09-09T05:36:19;4.60;;;2.30;;
63882;SDS011;50047;50.596;30.466;2022-09-09T05:38:51;4.80;;;2.10;;
63882;SDS011;50047;50.596;30.466;2022-09-09T05:41:20;10.20;;;2.30;;
63882;SDS011;50047;50.596;30.466;2022-09-09T05:43:50;3.90;;;2.40;;
63882;SDS011;50047;50.596;30.466;2022-09-09T05:46:18;3.00;;;2.30;;
63882;SDS011;50047;50.596;30.466;2022-09-09T05:48:48;6.40;;;2.40;;
63882;SDS011;50047;50.596;30.466;2022-09-09T05:51:20;3.40;;;2.50;;
63882;SDS011;50047;50.596;30.466;2022-09-09T05:53:54;3.00;;;2.00;;
63882;SDS011;50047;50.596;30.466;2022-09-09T05:56:23;3.80;;;2.20;;
63882;SDS011;50047;50.596;30.466;2022-09-09T05:58:52;3.40;;;2.30;;
63882;SDS011;50047;50.596;30.466;2022-09-09T06:01:25;5.00;;;2.40;;
63882;SDS011;50047;50.596;30.466;2022-09-09T06:03:54;3.70;;;2.10;;
63882;SDS011;50047;50.596;30.466;2022-09-09T06:06:25;5.60;;;2.10;;
63882;SDS011;50047;50.596;30.466;2022-09-09T06:08:56;5.30;;;2.40;;
63882;SDS011;50047;50.596;30.466;2022-09-09T06:11:28;3.00;;;2.00;;
63882;SDS011;50047;50.596;30.466;2022-09-09T06:13:59;7.20;;;2.30;;
63882;SDS011;50047;50.596;30.466;2022-09-09T06:16:28;5.10;;;2.70;;
63882;SDS011;50047;50.596;30.466;2022-09-09T06:18:56;4.30;;;2.50;;
63882;SDS011;50047;50.596;30.466;2022-09-09T06:21:29;4.70;;;2.20;;
63882;SDS011;50047;50.596;30.466;2022-09-09T06:23:59;4.20;;;2.50;;
63882;SDS011;50047;50.596;30.466;2022-09-09T06:26:29;3.90;;;2.40;;
63882;SDS011;50047;50.596;30.466;2022-09-09T06:28:58;3.90;;;2.10;;
63882;SDS011;50047;50.596;30.466;2022-09-09T06:31:27;3.50;;;2.10;;
63882;SDS011;50047;50.596;30.466;2022-09-09T06:34:00;2.60;;;2.00;;
63882;SDS011;50047;50.596;30.466;2022-09-09T06:36:29;3.40;;;1.80;;
63882;SDS011;50047;50.596;30.466;2022-09-09T06:38:59;4.60;;;1.90;;
63882;SDS011;50047;50.596;30.466;2022-09-09T06:41:29;5.00;;;1.90;;
63882;SDS011;50047;50.596;30.466;2022-09-09T06:43:58;3.30;;;2.20;;
63882;SDS011;50047;50.596;30.466;2022-09-09T06:46:32;4.30;;;1.90;;
63882;SDS011;50047;50.596;30.466;2022-09-09T06:49:00;5.70;;;2.20;;
63882;SDS011;50047;50.596;30.466;2022-09-09T06:51:33;3.30;;;1.80;;
63882;SDS011;50047;50.596;30.466;2022-09-09T06:54:03;6.90;;;2.00;;
63882;SDS011;50047;50.596;30.466;2022-09-09T06:56:32;3.30;;;1.90;;
63882;SDS011;50047;50.596;30.466;2022-09-09T06:59:04;3.10;;;1.90;;
63882;SDS011;50047;50.596;30.466;2022-09-09T07:01:33;3.40;;;2.10;;
63882;SDS011;50047;50.596;30.466;2022-09-09T07:04:05;2.90;;;1.80;;
63882;SDS011;50047;50.596;30.466;2022-09-09T07:06:36;5.20;;;2.00;;
63882;SDS011;50047;50.596;30.466;2022-09-09T07:09:07;3.30;;;2.10;;
63882;SDS011;50047;50.596;30.466;2022-09-09T07:11:40;3.10;;;1.90;;
63882;SDS011;50047;50.596;30.466;2022-09-09T07:14:11;9.70;;;2.60;;
63882;SDS011;50047;50.596;30.466;2022-09-09T07:16:42;3.90;;;2.10;;
63882;SDS011;50047;50.596;30.466;2022-09-09T07:19:11;4.90;;;2.90;;
63882;SDS011;50047;50.596;30.466;2022-09-09T07:21:39;3.70;;;2.10;;
63882;SDS011;50047;50.596;30.466;2022-09-09T07:24:07;2.40;;;1.70;;
63882;SDS011;50047;50.596;30.466;2022-09-09T07:26:38;5.40;;;2.20;;
63882;SDS011;50047;50.596;30.466;2022-09-09T07:29:07;6.10;;;2.40;;
63882;SDS011;50047;50.596;30.466;2022-09-09T07:31:36;4.60;;;1.90;;
63882;SDS011;50047;50.596;30.466;2022-09-09T07:34:08;4.50;;;2.20;;
63882;SDS011;50047;50.596;30.466;2022-09-09T07:36:36;3.60;;;1.80;;
63882;SDS011;50047;50.596;30.466;2022-09-09T07:39:07;5.10;;;2.00;;
63882;SDS011;50047;50.596;30.466;2022-09-09T07:41:40;2.40;;;1.50;;
63882;SDS011;50047;50.596;30.466;2022-09-09T07:44:10;4.00;;;1.70;;
63882;SDS011;50047;50.596;30.466;2022-09-09T07:46:44;7.20;;;1.80;;
63882;SDS011;50047;50.596;30.466;2022-09-09T07:49:15;2.10;;;1.40;;
63882;SDS011;50047;50.596;30.466;2022-09-09T07:51:43;2.10;;;1.40;;
63882;SDS011;50047;50.596;30.466;2022-09-09T07:54:13;2.20;;;1.50;;
63882;SDS011;50047;50.596;30.466;2022-09-09T07:56:43;2.30;;;1.30;;
63882;SDS011;50047;50.596;30.466;2022-09-09T07:59:10;5.10;;;1.10;;
63882;SDS011;50047;50.596;30.466;2022-09-09T08:01:41;3.80;;;1.40;;
63882;SDS011;50047;50.596;30.466;2022-09-09T08:04:18;2.00;;;1.20;;
63882;SDS011;50047;50.596;30.466;2022-09-09T08:06:56;3.90;;;1.30;;
63882;SDS011;50047;50.596;30.466;2022-09-09T08:09:26;4.70;;;1.10;;
63882;SDS011;50047;50.596;30.466;2022-09-09T08:12:16;3.50;;;1.00;;
63882;SDS011;50047;50.596;30.466;2022-09-09T08:14:43;1.00;;;0.80;;
63882;SDS011;50047;50.596;30.466;2022-09-09T08:17:10;2.70;;;1.00;;
63882;SDS011;50047;50.596;30.466;2022-09-09T08:19:38;1.10;;;0.80;;
63882;SDS011;50047;50.596;30.466;2022-09-09T08:22:09;1.40;;;0.70;;
63882;SDS011;50047;50.596;30.466;2022-09-09T08:24:38;2.90;;;1.60;;
63882;SDS011;50047;50.596;30.466;2022-09-09T08:27:06;1.10;;;0.90;;
63882;SDS011;50047;50.596;30.466;2022-09-09T08:29:33;1.10;;;0.90;;
63882;SDS011;50047;50.596;30.466;2022-09-09T08:32:01;1.50;;;1.10;;
63882;SDS011;50047;50.596;30.466;2022-09-09T08:34:29;2.20;;;1.10;;
63882;SDS011;50047;50.596;30.466;2022-09-09T08:37:00;2.10;;;1.00;;
63882;SDS011;50047;50.596;30.466;2022-09-09T08:39:32;3.20;;;1.10;;
63882;SDS011;50047;50.596;30.466;2022-09-09T08:45:19;2.10;;;1.20;;
63882;SDS011;50047;50.596;30.466;2022-09-09T08:48:01;1.10;;;0.90;;
63882;SDS011;50047;50.596;30.466;2022-09-09T08:50:38;2.70;;;0.90;;
63882;SDS011;50047;50.596;30.466;2022-09-09T08:53:23;1.90;;;1.10;;
63882;SDS011;50047;50.596;30.466;2022-09-09T08:55:58;2.90;;;1.00;;
63882;SDS011;50047;50.596;30.466;2022-09-09T08:58:49;1.00;;;0.80;;
63882;SDS011;50047;50.596;30.466;2022-09-09T09:09:58;1.20;;;0.90;;
63882;SDS011;50047;50.596;30.466;2022-09-09T09:13:10;2.90;;;0.80;;
63882;SDS011;50047;50.596;30.466;2022-09-09T09:15:40;4.30;;;1.10;;
63882;SDS011;50047;50.596;30.466;2022-09-09T09:18:10;1.50;;;1.00;;
63882;SDS011;50047;50.596;30.466;2022-09-09T09:20:47;7.00;;;1.20;;
63882;SDS011;50047;50.596;30.466;2022-09-09T09:23:21;6.10;;;1.10;;
63882;SDS011;50047;50.596;30.466;2022-09-09T09:25:53;2.60;;;1.00;;
63882;SDS011;50047;50.596;30.466;2022-09-09T09:28:30;1.10;;;0.70;;
63882;SDS011;50047;50.596;30.466;2022-09-09T09:31:05;2.30;;;1.00;;
63882;SDS011;50047;50.596;30.466;2022-09-09T09:33:39;1.50;;;1.00;;
63882;SDS011;50047;50.596;30.466;2022-09-09T09:36:24;2.30;;;1.00;;
63882;SDS011;50047;50.596;30.466;2022-09-09T09:39:01;1.30;;;0.80;;
63882;SDS011;50047;50.596;30.466;2022-09-09T09:41:52;2.60;;;0.80;;
63882;SDS011;50047;50.596;30.466;2022-09-09T09:44:25;1.50;;;0.90;;
63882;SDS011;50047;50.596;30.466;2022-09-09T09:46:53;3.30;;;1.10;;
63882;SDS011;50047;50.596;30.466;2022-09-09T09:49:34;2.50;;;1.00;;
63882;SDS011;50047;50.596;30.466;2022-09-09T09:52:05;4.80;;;1.20;;
63882;SDS011;50047;50.596;30.466;2022-09-09T09:54:38;4.40;;;0.90;;
63882;SDS011;50047;50.596;30.466;2022-09-09T09:57:13;4.00;;;1.00;;
63882;SDS011;50047;50.596;30.466;2022-09-09T09:59:44;1.90;;;0.80;;
63882;SDS011;50047;50.596;30.466;2022-09-09T10:02:24;3.00;;;0.90;;
63882;SDS011;50047;50.596;30.466;2022-09-09T10:05:00;2.10;;;0.70;;
63882;SDS011;50047;50.596;30.466;2022-09-09T10:07:31;1.30;;;0.80;;
63882;SDS011;50047;50.596;30.466;2022-09-09T10:10:00;1.30;;;0.90;;
63882;SDS011;50047;50.596;30.466;2022-09-09T10:15:22;3.10;;;1.10;;
63882;SDS011;50047;50.596;30.466;2022-09-09T10:20:42;2.20;;;0.90;;
63882;SDS011;50047;50.596;30.466;2022-09-09T10:28:55;2.30;;;1.00;;
63882;SDS011;50047;50.596;30.466;2022-09-09T10:37:34;4.90;;;1.00;;
63882;SDS011;50047;50.596;30.466;2022-09-09T10:40:23;2.10;;;1.20;;
63882;SDS011;50047;50.596;30.466;2022-09-09T10:42:54;1.10;;;0.90;;
63882;SDS011;50047;50.596;30.466;2022-09-09T10:45:29;3.20;;;1.10;;
63882;SDS011;50047;50.596;30.466;2022-09-09T10:48:23;1.70;;;1.00;;
63882;SDS011;50047;50.596;30.466;2022-09-09T10:50:55;1.00;;;0.80;;
63882;SDS011;50047;50.596;30.466;2022-09-09T10:56:29;1.60;;;0.80;;
63882;SDS011;50047;50.596;30.466;2022-09-09T10:59:40;5.10;;;1.00;;
63882;SDS011;50047;50.596;30.466;2022-09-09T11:01:54;3.90;;;1.00;;
63882;SDS011;50047;50.596;30.466;2022-09-09T11:04:25;1.90;;;1.00;;
63882;SDS011;50047;50.596;30.466;2022-09-09T11:06:59;1.20;;;0.80;;
63882;SDS011;50047;50.596;30.466;2022-09-09T11:09:39;1.00;;;0.90;;
63882;SDS011;50047;50.596;30.466;2022-09-09T11:12:16;4.70;;;1.00;;
63882;SDS011;50047;50.596;30.466;2022-09-09T11:14:59;7.00;;;1.40;;
63882;SDS011;50047;50.596;30.466;2022-09-09T11:17:52;2.90;;;1.00;;
63882;SDS011;50047;50.596;30.466;2022-09-09T11:20:23;4.10;;;0.90;;
63882;SDS011;50047;50.596;30.466;2022-09-09T11:22:59;2.00;;;0.80;;
63882;SDS011;50047;50.596;30.466;2022-09-09T11:25:37;2.70;;;0.90;;
63882;SDS011;50047;50.596;30.466;2022-09-09T11:28:14;3.60;;;1.00;;
63882;SDS011;50047;50.596;30.466;2022-09-09T11:44:39;5.60;;;1.00;;
63882;SDS011;50047;50.596;30.466;2022-09-09T11:47:28;3.60;;;1.10;;
63882;SDS011;50047;50.596;30.466;2022-09-09T11:52:43;3.30;;;1.00;;
63882;SDS011;50047;50.596;30.466;2022-09-09T11:58:04;2.20;;;1.10;;
63882;SDS011;50047;50.596;30.466;2022-09-09T12:00:38;2.40;;;1.00;;
63882;SDS011;50047;50.596;30.466;2022-09-09T12:05:59;3.50;;;1.20;;
63882;SDS011;50047;50.596;30.466;2022-09-09T12:08:35;2.50;;;1.10;;
63882;SDS011;50047;50.596;30.466;2022-09-09T12:11:03;6.20;;;1.30;;
63882;SDS011;50047;50.596;30.466;2022-09-09T12:13:31;7.30;;;1.80;;
63882;SDS011;50047;50.596;30.466;2022-09-09T12:15:59;4.30;;;1.20;;
63882;SDS011;50047;50.596;30.466;2022-09-09T12:34:30;1.80;;;0.90;;
63882;SDS011;50047;50.596;30.466;2022-09-09T12:37:00;2.10;;;1.20;;
63882;SDS011;50047;50.596;30.466;2022-09-09T12:39:55;3.80;;;2.20;;
63882;SDS011;50047;50.596;30.466;2022-09-09T12:42:24;3.00;;;1.70;;
63882;SDS011;50047;50.596;30.466;2022-09-09T12:44:57;3.30;;;1.70;;
63882;SDS011;50047;50.596;30.466;2022-09-09T12:50:19;2.20;;;1.40;;
63882;SDS011;50047;50.596;30.466;2022-09-09T12:52:49;6.90;;;1.80;;
63882;SDS011;50047;50.596;30.466;2022-09-09T12:55:30;3.00;;;1.20;;
63882;SDS011;50047;50.596;30.466;2022-09-09T12:58:00;3.10;;;1.90;;
63882;SDS011;50047;50.596;30.466;2022-09-09T13:00:32;3.00;;;1.70;;
63882;SDS011;50047;50.596;30.466;2022-09-09T13:03:02;3.30;;;2.00;;
63882;SDS011;50047;50.596;30.466;2022-09-09T13:05:42;3.70;;;1.50;;
63882;SDS011;50047;50.596;30.466;2022-09-09T13:08:10;5.40;;;1.40;;
63882;SDS011;50047;50.596;30.466;2022-09-09T13:13:35;2.00;;;1.30;;
63882;SDS011;50047;50.596;30.466;2022-09-09T13:16:06;1.70;;;1.30;;
63882;SDS011;50047;50.596;30.466;2022-09-09T13:18:45;5.10;;;1.80;;
63882;SDS011;50047;50.596;30.466;2022-09-09T13:21:13;4.00;;;1.70;;
63882;SDS011;50047;50.596;30.466;2022-09-09T13:23:41;3.40;;;2.20;;
63882;SDS011;50047;50.596;30.466;2022-09-09T13:26:22;6.10;;;2.00;;
63882;SDS011;50047;50.596;30.466;2022-09-09T13:28:51;3.50;;;1.40;;
63882;SDS011;50047;50.596;30.466;2022-09-09T13:31:27;1.70;;;1.20;;
63882;SDS011;50047;50.596;30.466;2022-09-09T13:33:56;6.00;;;1.20;;
63882;SDS011;50047;50.596;30.466;2022-09-09T13:36:31;2.60;;;1.20;;
63882;SDS011;50047;50.596;30.466;2022-09-09T13:39:02;2.40;;;1.20;;
63882;SDS011;50047;50.596;30.466;2022-09-09T13:41:35;5.60;;;1.50;;
63882;SDS011;50047;50.596;30.466;2022-09-09T13:44:03;5.60;;;1.60;;
63882;SDS011;50047;50.596;30.466;2022-09-09T13:46:40;2.80;;;1.50;;
63882;SDS011;50047;50.596;30.466;2022-09-09T13:51:39;2.30;;;1.10;;
63882;SDS011;50047;50.596;30.466;2022-09-09T13:54:10;4.50;;;1.30;;
63882;SDS011;50047;50.596;30.466;2022-09-09T13:56:39;2.50;;;1.30;;
63882;SDS011;50047;50.596;30.466;2022-09-09T13:59:15;2.10;;;1.30;;
63882;SDS011;50047;50.596;30.466;2022-09-09T14:01:47;5.50;;;1.60;;
63882;SDS011;50047;50.596;30.466;2022-09-09T14:04:16;3.50;;;1.50;;
63882;SDS011;50047;50.596;30.466;2022-09-09T14:06:43;2.50;;;1.50;;
63882;SDS011;50047;50.596;30.466;2022-09-09T14:09:12;5.70;;;1.60;;
63882;SDS011;50047;50.596;30.466;2022-09-09T14:11:43;2.60;;;1.50;;
63882;SDS011;50047;50.596;30.466;2022-09-09T14:14:13;2.60;;;1.80;;
63882;SDS011;50047;50.596;30.466;2022-09-09T14:16:40;2.50;;;1.70;;
63882;SDS011;50047;50.596;30.466;2022-09-09T14:19:09;5.00;;;2.00;;
63882;SDS011;50047;50.596;30.466;2022-09-09T14:21:37;4.40;;;2.20;;
63882;SDS011;50047;50.596;30.466;2022-09-09T14:24:09;8.00;;;2.10;;
63882;SDS011;50047;50.596;30.466;2022-09-09T14:26:40;4.80;;;2.30;;
63882;SDS011;50047;50.596;30.466;2022-09-09T14:29:07;5.70;;;2.60;;
63882;SDS011;50047;50.596;30.466;2022-09-09T14:31:38;3.30;;;2.00;;
63882;SDS011;50047;50.596;30.466;2022-09-09T14:34:05;5.20;;;2.20;;
63882;SDS011;50047;50.596;30.466;2022-09-09T14:36:32;6.10;;;2.20;;
63882;SDS011;50047;50.596;30.466;2022-09-09T14:39:00;4.10;;;2.20;;
63882;SDS011;50047;50.596;30.466;2022-09-09T14:41:27;5.00;;;2.20;;
63882;SDS011;50047;50.596;30.466;2022-09-09T14:43:56;4.20;;;1.80;;
63882;SDS011;50047;50.596;30.466;2022-09-09T14:46:23;3.20;;;1.70;;
63882;SDS011;50047;50.596;30.466;2022-09-09T14:48:52;2.30;;;1.50;;
63882;SDS011;50047;50.596;30.466;2022-09-09T14:51:25;4.00;;;1.70;;
63882;SDS011;50047;50.596;30.466;2022-09-09T14:53:56;5.10;;;1.50;;
63882;SDS011;50047;50.596;30.466;2022-09-09T14:56:29;5.70;;;1.60;;
63882;SDS011;50047;50.596;30.466;2022-09-09T14:58:58;10.50;;;1.60;;
63882;SDS011;50047;50.596;30.466;2022-09-09T15:01:27;6.60;;;1.50;;
63882;SDS011;50047;50.596;30.466;2022-09-09T15:03:59;3.10;;;1.50;;
63882;SDS011;50047;50.596;30.466;2022-09-09T15:06:29;3.50;;;1.70;;
63882;SDS011;50047;50.596;30.466;2022-09-09T15:08:58;2.80;;;1.40;;
63882;SDS011;50047;50.596;30.466;2022-09-09T15:11:28;2.40;;;1.50;;
63882;SDS011;50047;50.596;30.466;2022-09-09T15:13:57;3.20;;;1.50;;
63882;SDS011;50047;50.596;30.466;2022-09-09T16:09:32;6.90;;;3.40;;
63882;SDS011;50047;50.596;30.466;2022-09-09T16:12:00;8.30;;;3.70;;
63882;SDS011;50047;50.596;30.466;2022-09-09T16:14:29;10.60;;;3.90;;
63882;SDS011;50047;50.596;30.466;2022-09-09T16:17:01;8.90;;;3.50;;
63882;SDS011;50047;50.596;30.466;2022-09-09T16:19:29;8.70;;;4.10;;
63882;SDS011;50047;50.596;30.466;2022-09-09T16:22:00;9.30;;;4.00;;
63882;SDS011;50047;50.596;30.466;2022-09-09T16:24:28;8.50;;;3.90;;
63882;SDS011;50047;50.596;30.466;2022-09-09T16:26:58;6.60;;;3.10;;
63882;SDS011;50047;50.596;30.466;2022-09-09T16:29:25;10.90;;;2.90;;
63882;SDS011;50047;50.596;30.466;2022-09-09T16:31:54;6.10;;;3.10;;
63882;SDS011;50047;50.596;30.466;2022-09-09T16:34:29;6.90;;;3.30;;
63882;SDS011;50047;50.596;30.466;2022-09-09T16:36:56;7.30;;;3.30;;
63882;SDS011;50047;50.596;30.466;2022-09-09T16:39:23;7.40;;;3.40;;
63882;SDS011;50047;50.596;30.466;2022-09-09T16:41:51;8.90;;;3.40;;
63882;SDS011;50047;50.596;30.466;2022-09-09T16:44:19;7.40;;;3.60;;
63882;SDS011;50047;50.596;30.466;2022-09-09T16:46:47;6.80;;;3.40;;
63882;SDS011;50047;50.596;30.466;2022-09-09T16:49:15;7.30;;;3.30;;
63882;SDS011;50047;50.596;30.466;2022-09-09T16:51:49;7.40;;;2.90;;
63882;SDS011;50047;50.596;30.466;2022-09-09T16:54:20;7.30;;;3.50;;
63882;SDS011;50047;50.596;30.466;2022-09-09T16:56:48;6.30;;;2.70;;
63882;SDS011;50047;50.596;30.466;2022-09-09T16:59:18;6.50;;;3.30;;
63882;SDS011;50047;50.596;30.466;2022-09-09T17:01:47;6.40;;;3.10;;
63882;SDS011;50047;50.596;30.466;2022-09-09T17:04:17;6.50;;;3.60;;
63882;SDS011;50047;50.596;30.466;2022-09-09T17:06:53;7.10;;;2.90;;
63882;SDS011;50047;50.596;30.466;2022-09-09T17:09:22;6.50;;;4.00;;
63882;SDS011;50047;50.596;30.466;2022-09-09T17:11:59;11.20;;;4.40;;
63882;SDS011;50047;50.596;30.466;2022-09-09T17:14:26;12.20;;;4.20;;
63882;SDS011;50047;50.596;30.466;2022-09-09T17:16:53;8.60;;;4.10;;
63882;SDS011;50047;50.596;30.466;2022-09-09T17:19:20;9.50;;;4.40;;
63882;SDS011;50047;50.596;30.466;2022-09-09T17:21:50;9.50;;;5.00;;
63882;SDS011;50047;50.596;30.466;2022-09-09T17:24:37;9.80;;;4.60;;
63882;SDS011;50047;50.596;30.466;2022-09-09T17:27:05;12.20;;;5.20;;
63882;SDS011;50047;50.596;30.466;2022-09-09T17:29:36;13.40;;;5.10;;
63882;SDS011;50047;50.596;30.466;2022-09-09T17:32:05;15.70;;;6.00;;
63882;SDS011;50047;50.596;30.466;2022-09-09T17:34:34;11.20;;;5.40;;
63882;SDS011;50047;50.596;30.466;2022-09-09T17:37:01;9.90;;;5.60;;
63882;SDS011;50047;50.596;30.466;2022-09-09T17:39:30;16.30;;;6.10;;
63882;SDS011;50047;50.596;30.466;2022-09-09T17:42:02;16.40;;;6.60;;
63882;SDS011;50047;50.596;30.466;2022-09-09T17:44:34;17.10;;;8.00;;
63882;SDS011;50047;50.596;30.466;2022-09-09T17:47:02;15.00;;;7.20;;
63882;SDS011;50047;50.596;30.466;2022-09-09T17:49:30;18.30;;;6.60;;
63882;SDS011;50047;50.596;30.466;2022-09-09T17:51:58;15.60;;;5.50;;
63882;SDS011;50047;50.596;30.466;2022-09-09T17:54:25;6.80;;;3.60;;
63882;SDS011;50047;50.596;30.466;2022-09-09T17:56:53;11.50;;;4.80;;
63882;SDS011;50047;50.596;30.466;2022-09-09T17:59:20;7.30;;;3.60;;